createdAt,value
2019-05-09T00:00:23.564Z,11.23
2019-05-09T00:02:57.004Z,11.14
2019-05-09T00:05:29.945Z,11.07
2019-05-09T00:08:03.603Z,11.03
2019-05-09T00:10:44.895Z,11.09
2019-05-09T00:13:23.595Z,11.07
2019-05-09T00:15:59.155Z,10.99
2019-05-09T00:18:33.822Z,10.93
2019-05-09T00:21:20.300Z,10.92
2019-05-09T00:23:54.094Z,10.83
2019-05-09T00:26:27.939Z,10.88
2019-05-09T00:29:13.896Z,10.80
2019-05-09T00:32:03.351Z,10.78
2019-05-09T00:34:58.610Z,10.73
2019-05-09T00:37:36.854Z,10.72
2019-05-09T00:40:09.948Z,10.67
2019-05-09T00:42:50.635Z,10.66
2019-05-09T00:45:55.829Z,10.63
2019-05-09T00:48:38.999Z,10.60
2019-05-09T00:51:14.022Z,10.58
2019-05-09T00:53:50.329Z,10.58
2019-05-09T00:56:24.178Z,10.53
2019-05-09T00:58:57.163Z,10.54
2019-05-09T01:01:34.217Z,10.54
2019-05-09T01:04:09.214Z,10.52
2019-05-09T01:06:43.409Z,10.52
2019-05-09T01:09:20.660Z,10.56
2019-05-09T01:11:53.558Z,10.54
2019-05-09T01:14:29.576Z,10.53
2019-05-09T01:17:05.231Z,10.50
2019-05-09T01:19:37.951Z,10.50
2019-05-09T01:22:19.907Z,10.44
2019-05-09T01:24:58.314Z,10.47
2019-05-09T01:27:39.430Z,10.47
2019-05-09T01:30:24.271Z,10.42
2019-05-09T01:33:28.059Z,10.41
2019-05-09T01:36:17.028Z,10.47
2019-05-09T01:39:03.185Z,10.52
2019-05-09T01:41:39.887Z,10.46
2019-05-09T01:44:13.485Z,10.44
2019-05-09T01:46:48.280Z,10.42
2019-05-09T01:49:25.547Z,10.38
2019-05-09T01:51:58.530Z,10.34
2019-05-09T01:54:33.247Z,10.32
2019-05-09T01:57:08.040Z,10.31
2019-05-09T01:59:41.075Z,10.30
2019-05-09T02:02:18.305Z,10.29
2019-05-09T02:04:53.293Z,10.26
2019-05-09T02:07:29.664Z,10.23
2019-05-09T02:10:03.514Z,10.30
2019-05-09T02:12:38.766Z,10.28
2019-05-09T02:15:28.714Z,10.23
2019-05-09T02:18:13.721Z,10.17
2019-05-09T02:20:49.747Z,10.13
2019-05-09T02:23:25.059Z,10.09
2019-05-09T02:26:00.736Z,10.10
2019-05-09T02:28:36.632Z,10.07
2019-05-09T02:31:09.468Z,10.08
2019-05-09T02:33:45.650Z,10.04
2019-05-09T02:36:19.214Z,10.02
2019-05-09T02:38:52.268Z,9.99
2019-05-09T02:41:24.857Z,10.01
2019-05-09T02:43:58.666Z,10.01
2019-05-09T02:46:38.485Z,9.98
2019-05-09T02:49:11.437Z,9.97
2019-05-09T02:51:45.107Z,9.95
2019-05-09T02:54:19.043Z,9.93
2019-05-09T02:56:51.939Z,9.99
2019-05-09T02:59:34.905Z,9.97
2019-05-09T03:02:19.566Z,9.96
2019-05-09T03:04:52.362Z,9.90
2019-05-09T03:07:44.386Z,9.88
2019-05-09T03:10:19.160Z,9.79
2019-05-09T03:12:52.763Z,9.76
2019-05-09T03:15:28.655Z,9.77
2019-05-09T03:18:01.900Z,9.76
2019-05-09T03:20:53.951Z,9.68
2019-05-09T03:23:39.010Z,9.72
2019-05-09T03:26:19.415Z,9.66
2019-05-09T03:29:03.985Z,9.60
2019-05-09T03:31:40.451Z,9.67
2019-05-09T03:34:13.024Z,9.63
2019-05-09T03:36:47.630Z,9.59
2019-05-09T03:39:20.172Z,9.55
2019-05-09T03:41:53.507Z,9.53
2019-05-09T03:44:28.205Z,9.53
2019-05-09T03:47:12.323Z,9.53
2019-05-09T03:50:08.222Z,9.46
2019-05-09T03:52:41.146Z,9.56
2019-05-09T03:55:21.344Z,9.62
2019-05-09T03:58:01.049Z,9.54
2019-05-09T04:00:33.710Z,9.49
2019-05-09T04:03:08.159Z,9.46
2019-05-09T04:05:55.119Z,9.48
2019-05-09T04:08:31.271Z,9.46
2019-05-09T04:11:08.404Z,9.51
2019-05-09T04:13:51.788Z,9.49
2019-05-09T04:16:27.536Z,9.57
2019-05-09T04:19:00.478Z,9.66
2019-05-09T04:21:34.876Z,9.73
2019-05-09T04:24:08.534Z,9.65
2019-05-09T04:26:50.927Z,9.62
2019-05-09T04:29:23.499Z,9.60
2019-05-09T04:31:57.537Z,9.59
2019-05-09T04:34:30.304Z,9.61
2019-05-09T04:37:03.877Z,9.61
2019-05-09T04:39:38.721Z,9.57
2019-05-09T04:42:15.012Z,9.54
2019-05-09T04:45:02.742Z,9.54
2019-05-09T04:47:41.380Z,9.53
2019-05-09T04:50:23.505Z,9.55
2019-05-09T04:52:58.165Z,9.58
2019-05-09T04:55:34.951Z,9.67
2019-05-09T04:58:09.245Z,9.66
2019-05-09T05:00:48.042Z,9.79
2019-05-09T05:03:20.631Z,9.91
2019-05-09T05:05:53.235Z,10.00
2019-05-09T05:08:25.794Z,10.03
2019-05-09T05:10:58.381Z,10.15
2019-05-09T05:13:31.389Z,10.09
2019-05-09T05:16:04.079Z,10.16
2019-05-09T05:18:37.895Z,10.19
2019-05-09T05:21:11.772Z,10.18
2019-05-09T05:23:50.616Z,10.26
2019-05-09T05:26:23.420Z,10.25
2019-05-09T05:28:57.998Z,10.23
2019-05-09T05:31:31.720Z,10.23
2019-05-09T05:34:09.303Z,10.26
2019-05-09T05:36:41.864Z,10.33
2019-05-09T05:39:22.083Z,10.30
2019-05-09T05:41:54.821Z,10.39
2019-05-09T05:44:28.315Z,10.33
2019-05-09T05:47:26.489Z,10.42
2019-05-09T05:50:14.203Z,10.49
2019-05-09T05:52:47.994Z,10.46
2019-05-09T05:55:27.455Z,10.49
2019-05-09T05:58:01.059Z,10.58
2019-05-09T06:00:37.739Z,10.64
2019-05-09T06:03:10.500Z,10.73
2019-05-09T06:05:43.236Z,10.80
2019-05-09T06:08:17.482Z,10.90
2019-05-09T06:10:51.355Z,10.97
2019-05-09T06:13:24.637Z,11.03
2019-05-09T06:15:58.667Z,11.11
2019-05-09T06:18:32.916Z,11.24
2019-05-09T06:21:08.643Z,11.23
2019-05-09T06:23:41.536Z,11.31
2019-05-09T06:26:14.455Z,11.35
2019-05-09T06:28:48.116Z,11.40
2019-05-09T06:31:21.739Z,11.41
2019-05-09T06:33:57.569Z,11.44
2019-05-09T06:36:31.460Z,11.47
2019-05-09T06:39:09.316Z,11.52
2019-05-09T06:41:43.435Z,11.58
2019-05-09T06:44:28.299Z,11.69
2019-05-09T06:47:09.080Z,11.80
2019-05-09T06:49:44.439Z,11.83
2019-05-09T06:52:18.675Z,11.85
2019-05-09T06:54:53.182Z,11.89
2019-05-09T06:57:31.001Z,11.95
2019-05-09T07:00:10.234Z,11.99
2019-05-09T07:02:50.852Z,12.04
2019-05-09T07:05:31.123Z,12.11
2019-05-09T07:08:10.764Z,12.15
2019-05-09T07:10:44.654Z,12.27
2019-05-09T07:13:18.923Z,12.41
2019-05-09T07:15:52.780Z,12.43
2019-05-09T07:18:30.699Z,12.48
2019-05-09T07:21:04.984Z,12.49
2019-05-09T07:23:38.067Z,12.50
2019-05-09T07:26:13.476Z,12.54
2019-05-09T07:28:48.708Z,12.63
2019-05-09T07:31:38.201Z,12.70
2019-05-09T07:34:18.313Z,12.81
2019-05-09T07:36:51.129Z,12.88
2019-05-09T07:39:23.779Z,12.94
2019-05-09T07:41:58.495Z,12.99
2019-05-09T07:44:45.381Z,13.07
2019-05-09T07:47:23.362Z,13.11
2019-05-09T07:50:13.141Z,13.22
2019-05-09T07:52:52.632Z,13.41
2019-05-09T07:55:29.887Z,13.58
2019-05-09T07:58:07.756Z,13.69
2019-05-09T08:00:42.686Z,13.79
2019-05-09T08:03:18.115Z,13.81
2019-05-09T08:05:51.320Z,13.66
2019-05-09T08:08:27.771Z,13.65
2019-05-09T08:11:00.481Z,13.72
2019-05-09T08:13:35.627Z,13.88
2019-05-09T08:16:14.121Z,13.86
2019-05-09T08:18:48.493Z,13.87
2019-05-09T08:21:23.008Z,13.96
2019-05-09T08:23:57.865Z,14.22
2019-05-09T08:26:32.676Z,14.22
2019-05-09T08:29:09.253Z,14.04
2019-05-09T08:31:45.383Z,14.08
2019-05-09T08:34:18.849Z,14.25
2019-05-09T08:36:51.421Z,14.25
2019-05-09T08:39:24.443Z,14.32
2019-05-09T08:42:01.327Z,14.54
2019-05-09T08:44:37.759Z,14.65
2019-05-09T08:47:11.583Z,14.74
2019-05-09T08:49:54.616Z,14.86
2019-05-09T08:52:28.774Z,14.97
2019-05-09T08:55:04.058Z,15.07
2019-05-09T08:57:37.532Z,15.13
2019-05-09T09:00:15.546Z,15.16
2019-05-09T09:02:50.941Z,15.16
2019-05-09T09:05:30.745Z,15.19
2019-05-09T09:08:08.307Z,15.25
2019-05-09T09:10:43.721Z,15.26
2019-05-09T09:13:17.743Z,15.26
2019-05-09T09:16:08.426Z,15.25
2019-05-09T09:18:50.468Z,15.40
2019-05-09T09:21:23.020Z,15.53
2019-05-09T09:23:58.238Z,15.59
2019-05-09T09:26:33.503Z,15.81
2019-05-09T09:29:08.469Z,15.89
2019-05-09T09:31:42.417Z,15.91
2019-05-09T09:34:18.085Z,15.80
2019-05-09T09:36:51.982Z,15.80
2019-05-09T09:39:27.521Z,15.82
2019-05-09T09:42:03.718Z,15.73
2019-05-09T09:44:39.270Z,15.71
2019-05-09T09:47:13.507Z,15.64
2019-05-09T09:49:48.773Z,15.48
2019-05-09T09:52:23.705Z,15.20
2019-05-09T09:54:59.056Z,15.12
2019-05-09T09:57:32.491Z,15.01
2019-05-09T10:00:24.815Z,14.85
2019-05-09T10:02:58.716Z,14.80
2019-05-09T10:05:31.645Z,14.94
2019-05-09T10:08:08.462Z,15.12
2019-05-09T10:10:48.333Z,15.33
2019-05-09T10:13:23.493Z,15.47
2019-05-09T10:16:25.605Z,15.52
2019-05-09T10:19:22.884Z,15.47
2019-05-09T10:22:11.732Z,15.59
2019-05-09T10:24:44.368Z,15.81
2019-05-09T10:27:18.498Z,15.94
2019-05-09T10:29:52.100Z,16.25
2019-05-09T10:32:28.643Z,16.60
2019-05-09T10:35:08.593Z,16.98
2019-05-09T10:37:42.824Z,17.24
2019-05-09T10:40:24.063Z,17.07
2019-05-09T10:43:09.247Z,16.80
2019-05-09T10:45:50.749Z,16.51
2019-05-09T10:48:28.277Z,16.19
2019-05-09T10:51:10.693Z,15.95
2019-05-09T10:53:44.391Z,15.76
2019-05-09T10:56:20.387Z,15.59
2019-05-09T10:58:55.411Z,15.52
2019-05-09T11:01:29.500Z,15.43
2019-05-09T11:04:03.259Z,15.29
2019-05-09T11:06:38.278Z,15.27
2019-05-09T11:09:14.749Z,15.10
2019-05-09T11:11:51.910Z,15.00
2019-05-09T11:14:33.491Z,15.01
2019-05-09T11:17:18.609Z,14.98
2019-05-09T11:19:55.086Z,14.98
2019-05-09T11:22:29.212Z,15.00
2019-05-09T11:25:05.541Z,15.03
2019-05-09T11:27:42.366Z,15.12
2019-05-09T11:30:17.693Z,15.25
2019-05-09T11:32:54.204Z,15.33
2019-05-09T11:35:28.143Z,15.55
2019-05-09T11:38:02.296Z,15.79
2019-05-09T11:40:37.887Z,16.08
2019-05-09T11:43:14.713Z,16.39
2019-05-09T11:45:47.888Z,16.72
2019-05-09T11:48:21.544Z,17.03
2019-05-09T11:50:57.727Z,17.28
2019-05-09T11:53:31.963Z,17.44
2019-05-09T11:56:05.144Z,17.43
2019-05-09T11:58:38.495Z,17.37
2019-05-09T12:01:13.364Z,17.37
2019-05-09T12:03:49.888Z,17.37
2019-05-09T12:06:24.826Z,17.57
2019-05-09T12:08:59.731Z,17.76
2019-05-09T12:11:32.445Z,18.06
2019-05-09T12:14:05.495Z,18.44
2019-05-09T12:16:48.460Z,18.46
2019-05-09T12:19:22.176Z,18.52
2019-05-09T12:21:58.377Z,18.61
2019-05-09T12:24:32.259Z,18.62
2019-05-09T12:27:05.475Z,18.57
2019-05-09T12:29:38.959Z,18.50
2019-05-09T12:32:11.667Z,18.49
2019-05-09T12:34:48.081Z,18.50
2019-05-09T12:37:22.226Z,18.62
2019-05-09T12:39:58.390Z,18.72
2019-05-09T12:42:32.486Z,18.71
2019-05-09T12:45:08.757Z,18.65
2019-05-09T12:47:49.259Z,18.73
2019-05-09T12:50:23.222Z,18.72
2019-05-09T12:52:58.893Z,18.58
2019-05-09T12:55:32.016Z,18.49
2019-05-09T12:58:04.978Z,18.39
2019-05-09T13:00:39.831Z,18.16
2019-05-09T13:03:13.349Z,18.01
2019-05-09T13:05:49.204Z,17.74
2019-05-09T13:08:22.241Z,17.56
2019-05-09T13:10:55.240Z,17.28
2019-05-09T13:13:31.937Z,17.07
2019-05-09T13:16:43.419Z,16.98
2019-05-09T13:19:20.047Z,17.01
2019-05-09T13:21:58.628Z,17.03
2019-05-09T13:24:32.039Z,17.01
2019-05-09T13:27:07.927Z,17.03
2019-05-09T13:29:42.315Z,16.94
2019-05-09T13:32:17.987Z,16.87
2019-05-09T13:34:51.354Z,16.91
2019-05-09T13:37:29.374Z,16.94
2019-05-09T13:40:04.015Z,16.97
2019-05-09T13:42:39.586Z,16.97
2019-05-09T13:45:18.452Z,17.00
2019-05-09T13:47:54.428Z,16.94
2019-05-09T13:50:28.279Z,16.92
2019-05-09T13:53:03.375Z,17.01
2019-05-09T13:55:38.107Z,17.10
2019-05-09T13:58:19.567Z,17.13
2019-05-09T14:00:59.059Z,17.03
2019-05-09T14:03:38.797Z,16.82
2019-05-09T14:06:13.435Z,16.67
2019-05-09T14:08:48.968Z,16.70
2019-05-09T14:11:22.619Z,16.76
2019-05-09T14:13:57.454Z,16.72
2019-05-09T14:16:31.589Z,16.74
2019-05-09T14:19:26.082Z,16.90
2019-05-09T14:22:09.213Z,17.01
2019-05-09T14:24:42.791Z,17.06
2019-05-09T14:27:18.496Z,17.11
2019-05-09T14:29:51.869Z,17.09
2019-05-09T14:32:26.838Z,17.01
2019-05-09T14:35:01.400Z,16.99
2019-05-09T14:37:34.591Z,16.89
2019-05-09T14:40:10.561Z,16.94
2019-05-09T14:42:46.537Z,16.97
2019-05-09T14:45:19.450Z,17.05
2019-05-09T14:47:54.139Z,17.06
2019-05-09T14:50:28.451Z,16.97
2019-05-09T14:53:02.807Z,16.86
2019-05-09T14:55:39.124Z,16.80
2019-05-09T14:58:17.806Z,16.77
2019-05-09T15:00:55.382Z,16.72
2019-05-09T15:03:28.382Z,16.69
2019-05-09T15:06:03.808Z,16.65
2019-05-09T15:08:39.570Z,16.68
2019-05-09T15:11:18.214Z,16.71
2019-05-09T15:13:51.609Z,16.71
2019-05-09T15:16:28.285Z,16.62
2019-05-09T15:19:03.322Z,16.74
2019-05-09T15:21:38.280Z,16.85
2019-05-09T15:24:19.241Z,16.91
2019-05-09T15:26:53.937Z,17.08
2019-05-09T15:29:29.011Z,17.54
2019-05-09T15:32:06.181Z,17.95
2019-05-09T15:34:45.000Z,18.08
2019-05-09T15:37:20.109Z,18.18
2019-05-09T15:39:55.771Z,18.04
2019-05-09T15:42:30.783Z,17.84
2019-05-09T15:45:09.500Z,17.82
2019-05-09T15:47:44.106Z,17.87
2019-05-09T15:50:23.305Z,17.77
2019-05-09T15:52:58.377Z,17.89
2019-05-09T15:55:32.240Z,18.14
2019-05-09T15:58:07.902Z,18.48
2019-05-09T16:00:41.121Z,18.82
2019-05-09T16:03:15.341Z,19.01
2019-05-09T16:05:48.487Z,19.03
2019-05-09T16:08:21.492Z,19.01
2019-05-09T16:10:57.924Z,19.06
2019-05-09T16:13:34.459Z,19.10
2019-05-09T16:16:10.644Z,18.98
2019-05-09T16:18:43.719Z,19.08
2019-05-09T16:21:18.582Z,19.13
2019-05-09T16:23:53.263Z,19.03
2019-05-09T16:26:29.093Z,18.74
2019-05-09T16:29:03.001Z,18.38
2019-05-09T16:31:38.678Z,18.32
2019-05-09T16:34:12.173Z,18.41
2019-05-09T16:36:45.171Z,18.21
2019-05-09T16:39:18.273Z,18.04
2019-05-09T16:41:53.312Z,17.91
2019-05-09T16:44:27.600Z,17.89
2019-05-09T16:47:02.073Z,17.94
2019-05-09T16:49:38.706Z,18.09
2019-05-09T16:52:14.418Z,18.23
2019-05-09T16:55:01.951Z,18.26
2019-05-09T16:57:37.702Z,18.21
2019-05-09T17:00:19.495Z,18.06
2019-05-09T17:02:53.896Z,17.83
2019-05-09T17:05:28.133Z,17.62
2019-05-09T17:08:03.066Z,17.41
2019-05-09T17:10:37.341Z,17.18
2019-05-09T17:13:10.336Z,16.94
2019-05-09T17:15:44.593Z,16.77
2019-05-09T17:18:19.075Z,16.64
2019-05-09T17:21:17.745Z,16.50
2019-05-09T17:23:51.741Z,16.41
2019-05-09T17:26:28.784Z,16.43
2019-05-09T17:29:02.265Z,16.37
2019-05-09T17:31:38.167Z,16.28
2019-05-09T17:34:11.247Z,16.24
2019-05-09T17:36:45.170Z,16.19
2019-05-09T17:39:19.795Z,16.20
2019-05-09T17:41:54.707Z,16.19
2019-05-09T17:44:32.806Z,16.15
2019-05-09T17:47:08.272Z,16.16
2019-05-09T17:49:44.572Z,16.15
2019-05-09T17:52:19.230Z,16.11
2019-05-09T17:54:52.235Z,16.08
2019-05-09T17:57:27.880Z,16.05
2019-05-09T18:00:01.156Z,16.03
2019-05-09T18:02:35.103Z,16.00
2019-05-09T18:05:08.941Z,15.94
2019-05-09T18:07:43.762Z,15.86
2019-05-09T18:10:18.382Z,15.86
2019-05-09T18:12:53.602Z,15.83
2019-05-09T18:15:28.310Z,15.76
2019-05-09T18:18:03.433Z,15.74
2019-05-09T18:20:41.477Z,15.69
2019-05-09T18:23:19.333Z,15.63
2019-05-09T18:25:58.442Z,15.61
2019-05-09T18:28:33.371Z,15.56
2019-05-09T18:31:08.886Z,15.49
2019-05-09T18:33:52.440Z,15.46
2019-05-09T18:36:30.732Z,15.43
2019-05-09T18:39:07.564Z,15.37
2019-05-09T18:41:44.070Z,15.36
2019-05-09T18:44:19.094Z,15.36
2019-05-09T18:46:57.505Z,15.32
2019-05-09T18:49:32.807Z,15.28
2019-05-09T18:52:09.713Z,15.10
2019-05-09T18:54:42.780Z,14.80
2019-05-09T18:57:20.084Z,14.54
2019-05-09T19:00:04.739Z,14.25
2019-05-09T19:02:43.232Z,14.05
2019-05-09T19:05:19.330Z,13.79
2019-05-09T19:07:55.919Z,13.59
2019-05-09T19:10:30.657Z,13.46
2019-05-09T19:13:05.490Z,13.36
2019-05-09T19:15:52.585Z,13.18
2019-05-09T19:18:33.038Z,13.05
2019-05-09T19:21:11.428Z,12.88
2019-05-09T19:23:44.581Z,12.76
2019-05-09T19:26:27.679Z,12.69
2019-05-09T19:29:03.274Z,12.56
2019-05-09T19:31:37.378Z,12.49
2019-05-09T19:34:15.966Z,12.38
2019-05-09T19:36:54.683Z,12.29
2019-05-09T19:39:46.403Z,12.30
2019-05-09T19:42:24.230Z,12.18
2019-05-09T19:44:59.211Z,12.09
2019-05-09T19:47:37.130Z,12.11
2019-05-09T19:50:12.153Z,12.15
2019-05-09T19:52:47.460Z,12.19
2019-05-09T19:55:22.643Z,12.14
2019-05-09T19:57:56.321Z,12.15
2019-05-09T20:00:29.919Z,12.19
2019-05-09T20:03:05.958Z,12.15
2019-05-09T20:05:42.200Z,12.20
2019-05-09T20:08:15.627Z,12.14
2019-05-09T20:11:01.900Z,12.10
2019-05-09T20:14:04.254Z,12.05
2019-05-09T20:16:41.918Z,11.97
2019-05-09T20:19:16.130Z,11.89
2019-05-09T20:21:51.536Z,11.86
2019-05-09T20:24:26.197Z,11.89
2019-05-09T20:26:59.378Z,11.94
2019-05-09T20:29:35.594Z,11.96
2019-05-09T20:32:12.504Z,11.90
2019-05-09T20:34:46.327Z,11.93
2019-05-09T20:37:19.324Z,11.95
2019-05-09T20:39:52.212Z,11.89
2019-05-09T20:42:25.466Z,11.94
2019-05-09T20:44:59.420Z,11.91
2019-05-09T20:47:35.664Z,11.93
2019-05-09T20:50:08.986Z,11.92
2019-05-09T20:52:45.049Z,11.91
2019-05-09T20:55:19.561Z,11.89
2019-05-09T20:57:56.470Z,11.95
2019-05-09T21:00:30.138Z,12.04
2019-05-09T21:03:03.196Z,12.13
2019-05-09T21:05:38.034Z,12.08
2019-05-09T21:08:12.003Z,12.07
2019-05-09T21:10:45.002Z,12.07
2019-05-09T21:13:17.955Z,12.02
2019-05-09T21:15:52.015Z,12.04
2019-05-09T21:18:25.901Z,12.04
2019-05-09T21:21:06.582Z,12.04
2019-05-09T21:23:40.598Z,12.03
2019-05-09T21:26:14.588Z,12.09
2019-05-09T21:28:48.573Z,12.10
2019-05-09T21:31:24.129Z,12.08
2019-05-09T21:33:58.687Z,12.08
2019-05-09T21:36:31.651Z,12.08
2019-05-09T21:39:05.968Z,12.08
2019-05-09T21:41:44.272Z,12.11
2019-05-09T21:44:19.797Z,12.11
2019-05-09T21:46:53.397Z,12.07
2019-05-09T21:49:26.994Z,12.13
2019-05-09T21:52:01.610Z,12.12
2019-05-09T21:54:35.236Z,12.10
2019-05-09T21:57:08.880Z,12.08
2019-05-09T21:59:43.766Z,12.04
2019-05-09T22:02:16.896Z,12.01
2019-05-09T22:04:49.834Z,12.01
2019-05-09T22:07:24.635Z,12.03
2019-05-09T22:09:57.677Z,12.04
2019-05-09T22:12:30.592Z,12.02
2019-05-09T22:15:06.411Z,12.02
2019-05-09T22:17:41.761Z,12.02
2019-05-09T22:20:16.586Z,11.99
2019-05-09T22:22:50.150Z,12.02
2019-05-09T22:25:23.956Z,12.01
2019-05-09T22:27:57.812Z,12.03
2019-05-09T22:30:30.751Z,12.02
2019-05-09T22:33:04.009Z,12.02
2019-05-09T22:35:36.955Z,12.04
2019-05-09T22:38:09.967Z,12.04
2019-05-09T22:40:44.615Z,12.05
2019-05-09T22:43:17.919Z,12.15
2019-05-09T22:45:51.621Z,12.14
2019-05-09T22:48:25.160Z,12.20
2019-05-09T22:50:58.144Z,12.15
2019-05-09T22:53:33.402Z,12.14
2019-05-09T22:56:07.892Z,12.07
2019-05-09T22:58:43.779Z,12.08
2019-05-09T23:01:17.980Z,12.02
2019-05-09T23:03:50.855Z,12.04
2019-05-09T23:06:23.851Z,12.05
2019-05-09T23:08:59.494Z,11.99
2019-05-09T23:11:32.487Z,12.02
2019-05-09T23:14:07.507Z,12.01
2019-05-09T23:16:41.507Z,11.91
2019-05-09T23:19:15.447Z,11.90
2019-05-09T23:21:48.350Z,11.95
2019-05-09T23:24:28.526Z,11.91
2019-05-09T23:27:02.214Z,11.99
2019-05-09T23:29:35.270Z,12.02
2019-05-09T23:32:22.518Z,12.09
2019-05-09T23:34:56.422Z,12.01
2019-05-09T23:37:31.224Z,11.96
2019-05-09T23:40:04.841Z,11.94
2019-05-09T23:42:38.051Z,11.84
2019-05-09T23:45:12.398Z,11.78
2019-05-09T23:47:45.240Z,11.77
2019-05-09T23:50:18.275Z,11.71
2019-05-09T23:52:51.189Z,11.77
2019-05-09T23:55:29.545Z,11.85
2019-05-09T23:58:09.843Z,11.91
